Time;durP1;ratioP1;P1;durP2;ratioP2;P2;SDS_P1;SDS_P2;PMS_P1;PMS_P2;Temp;Humidity;BMP_temperature;BMP_pressure;BME280_temperature;BME280_humidity;BME280_pressure;Samples;Min_cycle;Max_cycle;Signal;HPM_P1;HPM_P2
2023/04/16 00:00:09;;;;;;;5.67;2.47;;;;;;;12.79;60.93;94318.41;5001355;28;20187;-77
2023/04/16 00:02:35;;;;;;;6.17;2.80;;;;;;;12.71;60.84;94327.47;5008322;28;20176;-77
2023/04/16 00:05:00;;;;;;;4.80;2.80;;;;;;;12.60;61.51;94320.44;5003840;28;20220;-77
2023/04/16 00:07:25;;;;;;;6.97;2.70;;;;;;;12.52;61.13;94322.66;5003112;28;20187;-77
2023/04/16 00:09:51;;;;;;;8.13;3.40;;;;;;;12.35;61.04;94326.03;5011702;28;20192;-77
2023/04/16 00:12:16;;;;;;;8.73;3.27;;;;;;;12.28;61.27;94327.22;4995113;28;20677;-77
2023/04/16 00:14:42;;;;;;;7.13;3.33;;;;;;;12.24;62.06;94329.50;5007561;28;20185;-77
2023/04/16 00:17:08;;;;;;;7.67;4.50;;;;;;;12.22;62.44;94323.66;5000472;28;20212;-77
2023/04/16 00:19:34;;;;;;;11.05;4.75;;;;;;;12.06;62.32;94321.75;4998982;28;20499;-76
2023/04/16 00:22:00;;;;;;;9.47;4.90;;;;;;;12.05;62.22;94326.22;4992017;28;20260;-76
2023/04/16 00:24:25;;;;;;;12.67;4.87;;;;;;;11.89;62.29;94299.75;4991701;28;20196;-76
2023/04/16 00:26:50;;;;;;;11.67;4.73;;;;;;;11.96;62.10;94319.69;5000060;28;20204;-76
2023/04/16 00:29:16;;;;;;;10.27;4.33;;;;;;;11.94;62.26;94323.59;5007038;28;20196;-76
2023/04/16 00:31:41;;;;;;;12.33;5.20;;;;;;;11.87;62.32;94315.00;5011600;28;20188;-76
2023/04/16 00:34:07;;;;;;;11.87;5.00;;;;;;;11.83;62.32;94329.69;5011235;28;20194;-76
2023/04/16 00:36:32;;;;;;;10.53;4.57;;;;;;;11.60;61.96;94289.09;5011215;28;20299;-76
2023/04/16 00:38:57;;;;;;;9.87;4.47;;;;;;;11.72;61.78;94320.72;4999435;28;20288;-76
2023/04/16 00:41:23;;;;;;;11.63;5.57;;;;;;;11.60;62.33;94317.28;5006368;28;20691;-76
2023/04/16 00:43:49;;;;;;;13.47;5.10;;;;;;;11.54;62.54;94318.22;5001157;28;20192;-76
2023/04/16 00:46:23;;;;;;;15.83;5.07;;;;;;;11.46;63.09;94308.81;4991684;28;20181;-76
2023/04/16 00:48:51;;;;;;;8.70;4.50;;;;;;;11.45;62.11;94311.69;4991128;28;20287;-76
2023/04/16 00:51:18;;;;;;;13.80;4.50;;;;;;;11.30;62.23;94302.41;5004395;28;20180;-76
2023/04/16 00:53:45;;;;;;;15.47;6.10;;;;;;;11.31;61.87;94308.47;5011162;28;20181;-76
2023/04/16 00:56:11;;;;;;;10.73;5.13;;;;;;;11.21;60.53;94297.69;4999330;28;20316;-76
2023/04/16 00:58:37;;;;;;;14.43;5.23;;;;;;;11.20;60.98;94309.28;5006162;28;20192;-76
2023/04/16 01:01:03;;;;;;;10.03;4.50;;;;;;;11.18;62.00;94313.97;5010948;28;20271;-76
2023/04/16 01:03:42;;;;;;;9.67;4.63;;;;;;;10.99;63.56;94297.44;5026091;28;20271;-76
2023/04/16 01:06:08;;;;;;;11.63;4.97;;;;;;;11.03;63.75;94310.97;5002065;28;20178;-76
2023/04/16 01:08:33;;;;;;;15.23;6.80;;;;;;;10.90;63.71;94289.06;5010601;28;20220;-76
2023/04/16 01:10:59;;;;;;;11.43;5.77;;;;;;;11.03;64.14;94310.97;4997658;28;20212;-76
2023/04/16 01:13:24;;;;;;;13.87;5.63;;;;;;;10.98;65.50;94306.41;5002247;28;20230;-76
2023/04/16 01:15:50;;;;;;;12.53;5.87;;;;;;;10.88;65.58;94312.22;5007053;28;20662;-76
2023/04/16 01:18:21;;;;;;;15.13;6.00;;;;;;;10.79;64.74;94305.66;5003139;28;20207;-76
2023/04/16 01:20:47;;;;;;;14.13;6.73;;;;;;;10.79;64.34;94305.66;5006628;28;20177;-76
2023/04/16 01:23:13;;;;;;;12.30;6.07;;;;;;;10.71;66.11;94297.28;5008599;28;20255;-76
2023/04/16 01:25:38;;;;;;;15.40;6.97;;;;;;;10.67;66.64;94304.81;4994688;28;20673;-76
2023/04/16 01:28:05;;;;;;;15.93;6.50;;;;;;;10.43;66.12;94284.72;4999812;28;20905;-76
2023/04/16 01:30:30;;;;;;;13.67;5.67;;;;;;;10.60;65.95;94312.00;4998467;28;20671;-76
2023/04/16 01:32:56;;;;;;;16.00;6.53;;;;;;;10.51;65.34;94310.72;4995106;28;20495;-76
2023/04/16 01:35:22;;;;;;;15.20;5.70;;;;;;;10.20;64.91;94259.91;5013279;28;20246;-76
2023/04/16 01:37:49;;;;;;;13.30;6.07;;;;;;;10.51;65.46;94298.38;4994701;28;20793;-76
2023/04/16 01:40:15;;;;;;;16.67;6.40;;;;;;;10.53;65.71;94298.16;5003247;28;20192;-76
2023/04/16 01:42:40;;;;;;;13.83;6.13;;;;;;;10.55;65.77;94296.09;5003269;28;20180;-76
2023/04/16 01:45:06;;;;;;;20.87;7.17;;;;;;;10.53;65.15;94291.06;4994049;28;20184;-76
2023/04/16 01:47:31;;;;;;;10.43;5.67;;;;;;;10.52;64.86;94291.28;5000995;28;20239;-76
2023/04/16 01:49:58;;;;;;;12.87;5.07;;;;;;;10.47;64.52;94291.13;4994093;28;20201;-76
2023/04/16 01:52:23;;;;;;;21.90;5.77;;;;;;;10.43;64.65;94285.53;5010923;28;20264;-76
2023/04/16 01:54:49;;;;;;;22.67;5.43;;;;;;;10.37;64.68;94286.44;5002931;28;20275;-76
2023/04/16 01:57:14;;;;;;;33.97;7.10;;;;;;;10.30;64.91;94280.44;5011492;28;20207;-76
2023/04/16 01:59:40;;;;;;;22.87;6.00;;;;;;;10.29;65.63;94281.44;5013368;28;20177;-76
2023/04/16 02:02:12;;;;;;;20.00;7.17;;;;;;;10.30;65.31;94282.25;5013572;28;20188;-76
2023/04/16 02:04:42;;;;;;;20.37;6.43;;;;;;;10.32;65.36;94286.28;5013293;28;20188;-76
2023/04/16 02:07:08;;;;;;;25.37;5.50;;;;;;;10.33;65.31;94281.81;5001119;28;20188;-76
2023/04/16 02:09:34;;;;;;;28.17;5.83;;;;;;;10.31;65.87;94278.59;5001469;28;20208;-76
2023/04/16 02:12:02;;;;;;;16.97;7.50;;;;;;;10.23;65.68;94268.41;5013654;28;20190;-76
2023/04/16 02:14:27;;;;;;;16.70;6.67;;;;;;;10.36;65.60;94289.28;5013505;28;20192;-76
2023/04/16 02:16:53;;;;;;;21.70;7.97;;;;;;;10.37;65.66;94281.16;5013168;28;20180;-76
2023/04/16 02:19:18;;;;;;;23.67;7.50;;;;;;;10.41;65.70;94278.88;5013182;28;20184;-76
2023/04/16 02:21:43;;;;;;;28.03;7.90;;;;;;;10.44;65.45;94281.06;4994039;28;20184;-76
2023/04/16 02:24:09;;;;;;;24.20;6.73;;;;;;;10.34;65.27;94257.94;5005640;28;20177;-75
2023/04/16 02:26:34;;;;;;;19.23;6.60;;;;;;;10.46;65.71;94271.94;4998048;28;20177;-76
2023/04/16 02:29:00;;;;;;;24.00;7.17;;;;;;;10.33;65.97;94252.88;5002000;28;20339;-76
2023/04/16 02:31:27;;;;;;;15.03;5.80;;;;;;;10.44;65.68;94273.97;5013395;28;20180;-76
2023/04/16 02:33:53;;;;;;;21.80;7.27;;;;;;;10.43;66.08;94274.19;5007645;28;20196;-76
2023/04/16 02:36:18;;;;;;;18.70;6.27;;;;;;;10.31;67.10;94253.09;5001775;28;20608;-77
2023/04/16 02:38:44;;;;;;;12.97;6.80;;;;;;;10.44;67.41;94278.44;5001934;28;20177;-76
2023/04/16 02:41:09;;;;;;;15.57;5.83;;;;;;;10.41;67.63;94276.25;5004685;28;20196;-76
2023/04/16 02:43:34;;;;;;;13.23;5.47;;;;;;;10.36;67.01;94271.66;5013127;28;20191;-76
2023/04/16 02:46:00;;;;;;;15.27;5.07;;;;;;;10.36;66.80;94270.88;5012894;28;20165;-76
2023/04/16 02:48:25;;;;;;;14.03;5.93;;;;;;;10.28;67.81;94260.66;5012623;28;20188;-76
2023/04/16 02:50:50;;;;;;;10.90;5.60;;;;;;;10.33;67.82;94271.28;5012509;28;20201;-76
2023/04/16 02:53:16;;;;;;;13.50;5.33;;;;;;;10.28;67.35;94266.72;4999301;28;20256;-76
2023/04/16 02:55:51;;;;;;;14.10;5.73;;;;;;;10.29;68.32;94272.78;5001813;28;20205;-76
2023/04/16 02:58:16;;;;;;;13.07;6.60;;;;;;;10.30;68.78;94263.84;5003532;28;20186;-76
2023/04/16 03:00:42;;;;;;;14.57;6.50;;;;;;;10.33;68.61;94260.78;5012621;28;20179;-76
2023/04/16 03:03:07;;;;;;;16.80;7.00;;;;;;;10.30;68.61;94263.84;5012545;28;20242;-76
2023/04/16 03:05:33;;;;;;;15.73;5.03;;;;;;;10.25;68.09;94269.78;5012438;28;20311;-76
2023/04/16 03:07:58;;;;;;;13.73;5.80;;;;;;;10.25;67.50;94263.72;4993182;28;20191;-76
2023/04/16 03:10:23;;;;;;;15.13;5.87;;;;;;;10.26;67.58;94273.22;5001453;28;20208;-76
2023/04/16 03:12:49;;;;;;;14.83;6.33;;;;;;;10.27;67.89;94262.47;5007715;28;20172;-76
2023/04/16 03:15:14;;;;;;;20.47;6.57;;;;;;;10.28;68.19;94264.09;5003737;28;20188;-76
2023/04/16 03:17:40;;;;;;;15.93;6.40;;;;;;;10.27;67.38;94274.81;4992742;28;20251;-76
2023/04/16 03:20:06;;;;;;;13.40;6.00;;;;;;;10.26;67.45;94281.91;5005238;28;20173;-76
2023/04/16 03:22:31;;;;;;;14.00;6.70;;;;;;;10.30;67.51;94280.44;5012160;28;20184;-76
2023/04/16 03:24:57;;;;;;;16.03;7.37;;;;;;;10.31;67.04;94282.03;5003655;28;20185;-76
2023/04/16 03:27:22;;;;;;;25.30;7.43;;;;;;;10.36;66.58;94271.66;5011832;28;20661;-76
2023/04/16 03:29:47;;;;;;;13.80;6.93;;;;;;;10.41;66.02;94281.50;4998860;28;20197;-76
2023/04/16 03:32:13;;;;;;;14.27;6.47;;;;;;;10.34;66.69;94275.53;5006658;28;20430;-76
2023/04/16 03:34:38;;;;;;;16.33;5.97;;;;;;;10.32;66.43;94280.22;5010897;28;20259;-76
2023/04/16 03:37:05;;;;;;;14.93;6.27;;;;;;;10.34;67.28;94283.44;5011413;28;20232;-76
2023/04/16 03:39:30;;;;;;;12.20;6.03;;;;;;;10.36;66.93;94284.00;4998627;28;20169;-76
2023/04/16 03:41:56;;;;;;;14.23;6.20;;;;;;;10.35;67.00;94293.72;4998896;28;20329;-76
2023/04/16 03:44:21;;;;;;;13.43;6.13;;;;;;;10.35;66.80;94288.47;5011601;28;20192;-76
2023/04/16 03:46:46;;;;;;;10.90;5.43;;;;;;;10.37;66.83;94290.88;5011525;28;20590;-76
2023/04/16 03:49:12;;;;;;;19.77;5.90;;;;;;;10.36;66.76;94292.72;5011578;28;20204;-75
2023/04/16 03:51:37;;;;;;;14.27;6.57;;;;;;;10.28;67.55;94289.59;5004458;28;20677;-76
2023/04/16 03:54:03;;;;;;;20.57;6.37;;;;;;;10.28;67.74;94289.59;5009756;28;20299;-76
2023/04/16 03:56:28;;;;;;;12.93;6.83;;;;;;;10.29;68.60;94288.56;5008908;28;20185;-75
2023/04/16 03:58:53;;;;;;;15.50;7.97;;;;;;;10.29;68.66;94291.19;5003283;28;20542;-76
2023/04/16 04:01:19;;;;;;;12.47;7.33;;;;;;;10.28;68.64;94287.75;4997328;28;20271;-76
2023/04/16 04:03:44;;;;;;;15.87;7.47;;;;;;;10.27;68.42;94287.97;5007026;28;20187;-76
2023/04/16 04:06:10;;;;;;;11.80;6.87;;;;;;;10.27;68.40;94293.25;5002759;28;20826;-76
2023/04/16 04:08:35;;;;;;;15.80;7.23;;;;;;;10.30;67.59;94296.22;5011268;28;20196;-76
2023/04/16 04:11:01;;;;;;;17.53;7.53;;;;;;;10.30;67.32;94296.22;4995587;28;20185;-76
2023/04/16 04:13:26;;;;;;;13.57;6.50;;;;;;;10.39;66.37;94304.59;4991704;28;20713;-76
2023/04/16 04:15:51;;;;;;;12.83;5.63;;;;;;;10.49;66.00;94307.50;5003239;28;20601;-76
2023/04/16 04:18:17;;;;;;;11.47;5.67;;;;;;;10.57;65.53;94301.91;5006235;28;20566;-76
2023/04/16 04:20:43;;;;;;;12.20;6.20;;;;;;;10.64;66.07;94300.00;4999124;28;20222;-76
2023/04/16 04:23:08;;;;;;;12.83;6.03;;;;;;;10.70;65.50;94308.84;5001466;28;20181;-76
2023/04/16 04:25:34;;;;;;;10.60;6.47;;;;;;;10.73;65.79;94319.69;4994653;28;20187;-76
2023/04/16 04:27:59;;;;;;;14.07;6.67;;;;;;;10.79;65.04;94318.81;5011268;28;20176;-76
2023/04/16 04:30:25;;;;;;;13.73;6.60;;;;;;;10.81;64.63;94319.38;4994884;28;20316;-76
2023/04/16 04:32:50;;;;;;;15.60;6.77;;;;;;;10.67;64.61;94293.47;5000296;28;20186;-76
2023/04/16 04:35:15;;;;;;;22.07;10.57;;;;;;;10.85;63.94;94323.19;5003374;28;20622;-76
2023/04/16 04:37:41;;;;;;;24.30;10.90;;;;;;;10.91;64.69;94324.91;5011087;28;20235;-76
2023/04/16 04:40:08;;;;;;;19.33;9.83;;;;;;;11.00;64.97;94325.38;4994780;28;20205;-76
2023/04/16 04:42:33;;;;;;;24.80;13.30;;;;;;;11.01;64.58;94326.19;5000115;28;20562;-76
2023/04/16 04:44:59;;;;;;;18.03;8.53;;;;;;;10.87;64.77;94313.22;5003680;28;20190;-76
2023/04/16 04:47:25;;;;;;;17.57;8.80;;;;;;;11.01;65.42;94320.91;5013754;28;20176;-76
2023/04/16 04:49:50;;;;;;;22.33;9.80;;;;;;;11.03;65.60;94316.22;4998038;28;20201;-76
2023/04/16 04:52:15;;;;;;;19.73;7.80;;;;;;;11.25;64.64;94330.44;5013894;28;20609;-76
2023/04/16 04:54:41;;;;;;;18.10;9.53;;;;;;;11.29;63.73;94329.78;5014857;28;20267;-76
2023/04/16 04:57:07;;;;;;;19.60;9.80;;;;;;;11.29;63.32;94331.63;5014344;28;20176;-76
2023/04/16 04:59:32;;;;;;;23.33;11.63;;;;;;;11.27;63.37;94331.03;5014576;28;20252;-77
2023/04/16 05:01:58;;;;;;;23.77;10.67;;;;;;;11.25;63.75;94331.25;5014462;28;20188;-77
2023/04/16 05:04:24;;;;;;;26.13;10.90;;;;;;;11.16;63.48;94310.75;5010519;28;20231;-77
2023/04/16 05:06:49;;;;;;;23.03;10.50;;;;;;;11.15;63.20;94306.53;5001181;28;20180;-77
2023/04/16 05:09:15;;;;;;;16.70;7.30;;;;;;;11.33;63.48;94330.13;5011179;28;20239;-76
2023/04/16 05:11:41;;;;;;;9.47;5.50;;;;;;;11.37;62.19;94330.47;5010906;28;20184;-76
2023/04/16 05:14:07;;;;;;;8.40;4.27;;;;;;;11.36;62.26;94337.56;5001814;28;20188;-76
2023/04/16 05:16:35;;;;;;;7.07;4.33;;;;;;;11.32;62.63;94328.53;4995182;28;20187;-76
2023/04/16 05:19:00;;;;;;;9.30;3.93;;;;;;;11.39;62.69;94337.13;4994781;28;20216;-76
2023/04/16 05:21:26;;;;;;;8.23;4.47;;;;;;;11.44;62.39;94324.06;5006150;28;20180;-76
2023/04/16 05:23:51;;;;;;;13.20;4.90;;;;;;;11.50;62.85;94330.25;5014206;28;20603;-76
2023/04/16 05:26:17;;;;;;;9.40;4.13;;;;;;;11.57;64.53;94325.69;5013706;28;20715;-76
2023/04/16 05:28:42;;;;;;;14.60;4.50;;;;;;;11.70;64.01;94328.06;5014105;28;20208;-76
2023/04/16 05:31:07;;;;;;;8.50;4.40;;;;;;;11.77;63.44;94330.59;5005638;28;20653;-76
2023/04/16 05:33:33;;;;;;;17.03;4.30;;;;;;;11.84;63.32;94336.59;5014009;28;20192;-76
2023/04/16 05:35:58;;;;;;;12.07;4.23;;;;;;;11.90;62.19;94333.81;5014147;28;20203;-76
2023/04/16 05:38:24;;;;;;;10.47;4.27;;;;;;;11.99;61.04;94329.00;5005020;28;20219;-76
2023/04/16 05:40:49;;;;;;;7.57;4.53;;;;;;;12.09;60.01;94330.00;5002501;28;20201;-76
2023/04/16 05:43:14;;;;;;;9.13;5.03;;;;;;;12.15;59.90;94327.47;5002962;28;20647;-76
2023/04/16 05:45:40;;;;;;;11.53;4.40;;;;;;;12.22;58.68;94333.41;5011329;28;20180;-76
2023/04/16 05:48:08;;;;;;;15.23;4.40;;;;;;;12.19;59.53;94331.25;5012537;28;20223;-76
2023/04/16 05:50:33;;;;;;;7.97;3.77;;;;;;;12.26;58.91;94335.34;5013732;28;20208;-76
2023/04/16 05:52:58;;;;;;;8.13;4.07;;;;;;;12.24;59.02;94323.41;4999876;28;20173;-76
2023/04/16 05:55:24;;;;;;;15.13;3.83;;;;;;;12.29;59.73;94334.88;5010402;28;20180;-76
2023/04/16 05:57:49;;;;;;;9.50;3.97;;;;;;;12.31;59.59;94337.28;5012266;28;20193;-76
2023/04/16 06:00:15;;;;;;;8.63;4.63;;;;;;;12.35;60.01;94339.22;5006023;28;20213;-77
2023/04/16 06:02:40;;;;;;;10.13;5.13;;;;;;;12.36;60.05;94321.56;5001375;28;20519;-77
2023/04/16 06:05:06;;;;;;;21.07;7.87;;;;;;;12.48;60.40;94331.03;5004938;28;20251;-77
2023/04/16 06:07:31;;;;;;;14.77;7.13;;;;;;;12.58;59.94;94330.41;5003539;28;20181;-77
2023/04/16 06:09:57;;;;;;;15.03;7.90;;;;;;;12.65;59.44;94333.72;5005923;28;20204;-77
2023/04/16 06:12:22;;;;;;;25.53;12.20;;;;;;;12.71;58.43;94324.84;5013571;28;20222;-77
2023/04/16 06:14:48;;;;;;;12.97;6.83;;;;;;;12.74;57.41;94321.72;5004228;28;20564;-77
2023/04/16 06:17:13;;;;;;;8.90;4.90;;;;;;;12.88;57.27;94332.81;5004176;28;20216;-77
2023/04/16 06:19:38;;;;;;;8.03;4.67;;;;;;;13.03;56.80;94330.44;5002043;28;20643;-76
2023/04/16 06:22:05;;;;;;;6.47;3.97;;;;;;;13.21;55.47;94335.53;5006905;28;20275;-77
2023/04/16 06:24:31;;;;;;;6.57;4.20;;;;;;;13.44;56.56;94341.69;5010188;28;20555;-77
2023/04/16 06:26:56;;;;;;;8.00;3.97;;;;;;;13.65;56.21;94338.31;5012024;28;20187;-77
2023/04/16 06:29:22;;;;;;;6.80;3.57;;;;;;;13.87;56.76;94331.22;4993520;28;20197;-77
2023/04/16 06:31:47;;;;;;;9.27;4.33;;;;;;;14.06;55.26;94328.28;5003832;28;20211;-77
2023/04/16 06:34:13;;;;;;;7.70;3.97;;;;;;;13.93;55.02;94298.50;5001302;28;20189;-77
2023/04/16 06:36:38;;;;;;;6.50;3.63;;;;;;;14.13;54.23;94327.06;5001499;28;20199;-77
2023/04/16 06:39:03;;;;;;;7.67;4.80;;;;;;;14.11;54.18;94307.97;4996505;28;20216;-77
2023/04/16 06:41:29;;;;;;;6.80;3.70;;;;;;;14.36;53.21;94324.16;5009767;28;20195;-77
2023/04/16 06:43:54;;;;;;;8.23;3.70;;;;;;;14.54;53.77;94323.09;5004717;28;20173;-77
2023/04/16 06:46:20;;;;;;;8.00;4.33;;;;;;;14.76;51.84;94328.38;4999411;28;20207;-76
2023/04/16 06:48:45;;;;;;;7.40;4.15;;;;;;;14.98;51.54;94329.09;5001636;28;20215;-76
2023/04/16 06:51:12;;;;;;;7.72;3.97;;;;;;;15.21;51.02;94333.31;4992938;28;20181;-78
2023/04/16 06:53:37;;;;;;;8.65;4.00;;;;;;;15.46;49.30;94332.72;5010039;28;20191;-76
2023/04/16 06:56:03;;;;;;;6.32;3.50;;;;;;;15.73;48.76;94332.69;5012612;28;20188;-76
2023/04/16 06:58:28;;;;;;;8.63;3.45;;;;;;;16.04;48.34;94329.13;4999603;28;20185;-76
2023/04/16 07:00:54;;;;;;;7.25;3.33;;;;;;;16.11;46.38;94326.25;5007584;28;20177;-76
2023/04/16 07:03:19;;;;;;;7.07;3.53;;;;;;;16.05;47.44;94317.47;4997178;28;20176;-76
2023/04/16 07:05:45;;;;;;;5.50;3.30;;;;;;;16.09;47.13;94325.69;5001721;28;20599;-76
2023/04/16 07:08:10;;;;;;;8.63;3.80;;;;;;;15.91;46.19;94329.63;4998488;28;20185;-76
2023/04/16 07:10:35;;;;;;;7.45;3.35;;;;;;;15.65;46.36;94326.00;4992717;28;20674;-76
2023/04/16 07:13:01;;;;;;;7.97;3.50;;;;;;;15.64;47.92;94337.66;4992706;28;20256;-76
2023/04/16 07:15:26;;;;;;;8.30;3.30;;;;;;;15.70;48.96;94327.88;4999044;28;20649;-76
2023/04/16 07:17:52;;;;;;;6.70;3.72;;;;;;;15.65;49.20;94314.56;5000690;28;20181;-76
2023/04/16 07:20:17;;;;;;;9.35;3.30;;;;;;;15.75;47.25;94327.88;5003574;28;20183;-76
2023/04/16 07:22:43;;;;;;;8.95;3.88;;;;;;;15.95;47.44;94333.34;5004070;28;20180;-76
2023/04/16 07:25:08;;;;;;;6.60;3.17;;;;;;;16.16;48.81;94328.94;5002876;28;20187;-76
2023/04/16 07:27:34;;;;;;;11.05;4.40;;;;;;;16.36;47.44;94323.72;5002478;28;20208;-76
2023/04/16 07:29:59;;;;;;;7.88;3.38;;;;;;;16.44;46.73;94333.03;5011911;28;20200;-76
2023/04/16 07:32:25;;;;;;;6.88;4.10;;;;;;;16.47;45.61;94328.00;5002023;28;20263;-76
2023/04/16 07:34:50;;;;;;;10.50;3.15;;;;;;;16.41;46.34;94331.72;4992416;28;20208;-76
2023/04/16 07:37:16;;;;;;;5.88;3.22;;;;;;;16.42;47.02;94329.88;4992109;28;20193;-76
2023/04/16 07:39:41;;;;;;;6.03;3.15;;;;;;;16.09;46.33;94328.34;4992488;28;20657;-76
2023/04/16 07:42:06;;;;;;;5.60;3.88;;;;;;;16.26;47.39;94328.19;4992235;28;20955;-77
2023/04/16 07:44:32;;;;;;;5.45;3.33;;;;;;;16.43;46.98;94332.22;4992244;28;20177;-76
2023/04/16 07:46:57;;;;;;;5.13;3.33;;;;;;;16.68;46.93;94323.59;4992314;28;20181;-76
2023/04/16 07:49:22;;;;;;;10.27;3.15;;;;;;;16.97;46.10;94322.06;4992143;28;20239;-76
2023/04/16 07:51:48;;;;;;;5.35;3.17;;;;;;;17.16;45.41;94327.69;4992373;28;20200;-76
2023/04/16 07:54:15;;;;;;;5.97;3.30;;;;;;;17.35;44.41;94325.31;4992003;28;20180;-76
2023/04/16 07:56:40;;;;;;;5.53;3.30;;;;;;;17.48;44.60;94322.09;4991867;28;20177;-76
2023/04/16 07:59:06;;;;;;;9.48;4.18;;;;;;;17.51;43.91;94316.25;4992401;28;20169;-77
2023/04/16 08:01:31;;;;;;;7.70;3.55;;;;;;;17.18;43.67;94319.44;4992494;28;20181;-77
2023/04/16 08:03:57;;;;;;;10.75;3.67;;;;;;;17.26;45.66;94319.72;4992180;28;20204;-78
2023/04/16 08:06:22;;;;;;;7.57;3.53;;;;;;;17.50;46.79;94330.63;4992299;28;20786;-78
2023/04/16 08:08:48;;;;;;;5.15;3.38;;;;;;;17.67;43.90;94325.88;4992737;28;20203;-78
2023/04/16 08:11:14;;;;;;;11.15;4.00;;;;;;;17.57;44.16;94325.03;4992475;28;20207;-78
2023/04/16 08:13:40;;;;;;;17.48;3.67;;;;;;;17.48;45.40;94315.97;5007610;28;20181;-78
2023/04/16 08:16:05;;;;;;;7.63;3.53;;;;;;;18.02;45.48;94316.22;4995755;28;20298;-78
2023/04/16 08:18:31;;;;;;;6.60;3.58;;;;;;;18.37;43.71;94302.78;5012183;28;20168;-78
2023/04/16 08:20:56;;;;;;;8.30;3.97;;;;;;;18.89;44.52;94312.19;5010415;28;20642;-78
2023/04/16 08:23:22;;;;;;;10.40;4.07;;;;;;;19.32;41.34;94318.56;5001724;28;20672;-78
2023/04/16 08:25:47;;;;;;;6.80;3.85;;;;;;;19.29;43.16;94296.97;5009530;28;20176;-78
2023/04/16 08:28:13;;;;;;;6.97;3.70;;;;;;;19.39;43.43;94316.38;5015666;28;20176;-80
2023/04/16 08:30:38;;;;;;;8.23;3.50;;;;;;;19.13;41.09;94283.72;5016231;28;20204;-79
2023/04/16 08:33:04;;;;;;;12.52;3.75;;;;;;;19.08;40.69;94312.34;5016054;28;20186;-79
2023/04/16 08:35:30;;;;;;;12.07;3.45;;;;;;;18.96;41.42;94304.66;5016007;28;20550;-79
2023/04/16 08:37:56;;;;;;;9.00;3.28;;;;;;;18.75;41.82;94303.19;5016056;28;20638;-80
2023/04/16 08:40:24;;;;;;;6.95;3.00;;;;;;;18.57;43.47;94282.47;5016328;28;20176;-80
2023/04/16 08:42:57;;;;;;;6.50;3.45;;;;;;;18.72;42.84;94299.19;5002542;28;20663;-80
2023/04/16 08:45:25;;;;;;;5.68;3.20;;;;;;;18.62;41.10;94293.13;4996317;28;20165;-80
2023/04/16 08:47:52;;;;;;;11.27;3.03;;;;;;;18.51;42.43;94279.00;5001410;28;20180;-80
2023/04/16 08:50:25;;;;;;;7.57;3.28;;;;;;;18.75;43.66;94276.53;4995964;28;20201;-79
2023/04/16 08:53:08;;;;;;;7.40;3.05;;;;;;;18.99;43.51;94290.78;5006713;28;20165;-79
2023/04/16 08:55:39;;;;;;;10.30;3.03;;;;;;;19.15;42.17;94284.25;5010168;28;20192;-79
2023/04/16 08:58:10;;;;;;;5.45;3.08;;;;;;;19.41;42.15;94290.19;5015825;28;20180;-81
2023/04/16 09:00:38;;;;;;;4.30;2.85;;;;;;;19.39;41.33;94270.19;5012666;28;20183;-79
2023/04/16 09:03:03;;;;;;;6.88;2.85;;;;;;;19.26;40.29;94281.53;5015546;28;20565;-79
2023/04/16 09:05:30;;;;;;;4.78;1.95;;;;;;;19.14;40.03;94281.88;5015696;28;20169;-81
2023/04/16 09:07:55;;;;;;;4.18;2.67;;;;;;;18.88;40.37;94275.09;5015191;28;20653;-78
2023/04/16 09:10:22;;;;;;;9.02;2.28;;;;;;;18.74;40.94;94274.94;5012294;28;20227;-78
2023/04/16 09:12:47;;;;;;;4.63;2.15;;;;;;;18.39;40.36;94267.88;5007788;28;20174;-78
2023/04/16 09:15:13;;;;;;;4.70;2.42;;;;;;;17.73;42.55;94272.63;5021001;28;20206;-79
2023/04/16 09:17:39;;;;;;;6.40;2.67;;;;;;;17.28;43.28;94258.28;5006762;28;20181;-77
2023/04/16 09:20:07;;;;;;;5.07;2.40;;;;;;;17.31;44.05;94285.13;5005665;28;20174;-78
2023/04/16 09:22:33;;;;;;;5.40;2.05;;;;;;;17.40;45.17;94276.59;4999837;28;20198;-77
2023/04/16 09:24:59;;;;;;;5.03;2.50;;;;;;;17.52;44.17;94275.28;4999415;28;20196;-76
2023/04/16 09:27:25;;;;;;;4.38;2.00;;;;;;;17.56;41.80;94265.66;5007028;28;20223;-76
2023/04/16 09:29:50;;;;;;;3.00;1.65;;;;;;;17.67;44.26;94269.16;5004445;28;20649;-76
2023/04/16 09:32:16;;;;;;;4.10;1.80;;;;;;;17.63;43.32;94250.28;5008166;28;20238;-73
2023/04/16 09:35:10;;;;;;;6.30;1.98;;;;;;;17.90;43.21;94279.22;5002536;28;20260;-75
2023/04/16 09:37:35;;;;;;;4.28;2.15;;;;;;;17.88;42.37;94273.38;5000609;28;20232;-76
2023/04/16 09:40:03;;;;;;;4.82;1.77;;;;;;;17.98;42.61;94275.22;5003849;28;20308;-75
2023/04/16 09:42:35;;;;;;;4.95;2.22;;;;;;;18.10;41.86;94278.38;5002390;28;20161;-76
2023/04/16 09:45:00;;;;;;;4.55;1.98;;;;;;;18.22;43.06;94270.88;5002932;28;20268;-75
2023/04/16 09:47:39;;;;;;;4.90;2.00;;;;;;;18.42;40.38;94270.78;5003091;28;20288;-75
2023/04/16 09:50:07;;;;;;;3.78;2.20;;;;;;;18.46;43.46;94265.72;5002371;28;20193;-75
2023/04/16 09:52:37;;;;;;;5.00;1.90;;;;;;;18.55;41.30;94271.25;5001785;28;20176;-76
2023/04/16 09:55:03;;;;;;;3.47;2.03;;;;;;;18.67;41.30;94271.78;5004252;28;20211;-75
2023/04/16 09:57:29;;;;;;;3.47;2.15;;;;;;;18.60;39.40;94248.06;5001776;28;20172;-76
2023/04/16 10:00:04;;;;;;;9.77;2.67;;;;;;;18.18;40.82;94261.81;4999828;28;20191;-79
2023/04/16 10:02:30;;;;;;;5.45;1.60;;;;;;;18.15;42.45;94267.72;5009598;28;20239;-76
2023/04/16 10:04:56;;;;;;;3.65;1.85;;;;;;;17.94;41.76;94251.00;4995333;28;20958;-76
2023/04/16 10:07:26;;;;;;;3.65;1.90;;;;;;;17.79;41.39;94248.38;5002206;28;20168;-76
2023/04/16 10:09:52;;;;;;;3.70;1.90;;;;;;;17.45;41.67;94247.34;5008694;28;20192;-76
2023/04/16 10:12:18;;;;;;;2.70;1.50;;;;;;;17.32;42.93;94241.50;5010515;28;20176;-76
2023/04/16 10:14:43;;;;;;;3.92;1.75;;;;;;;17.40;42.76;94244.66;5014484;28;20953;-76
2023/04/16 10:17:09;;;;;;;7.80;2.20;;;;;;;17.52;42.36;94245.19;5012805;28;20180;-76
2023/04/16 10:19:34;;;;;;;3.28;2.20;;;;;;;17.53;43.55;94233.50;5000034;28;20581;-75
2023/04/16 10:22:01;;;;;;;4.82;2.00;;;;;;;17.66;43.34;94216.97;5009061;28;20180;-76
2023/04/16 10:24:30;;;;;;;5.80;1.77;;;;;;;17.92;43.00;94237.13;4993455;28;20212;-76
2023/04/16 10:26:57;;;;;;;6.13;2.25;;;;;;;18.08;43.46;94232.56;5000541;28;20633;-76
2023/04/16 10:29:24;;;;;;;5.40;2.13;;;;;;;18.20;43.17;94227.72;5001293;28;20197;-76
2023/04/16 10:31:50;;;;;;;5.70;1.90;;;;;;;18.19;43.07;94201.34;5008143;28;20184;-76
2023/04/16 10:34:17;;;;;;;5.03;1.80;;;;;;;18.41;42.94;94207.91;4996165;28;20272;-76
2023/04/16 10:36:47;;;;;;;5.30;2.08;;;;;;;18.60;44.44;94221.41;5006889;28;20235;-76
2023/04/16 10:39:17;;;;;;;6.15;2.95;;;;;;;18.57;44.75;94207.84;5002561;28;20392;-75
2023/04/16 10:41:44;;;;;;;4.20;2.00;;;;;;;18.82;45.29;94223.66;5012273;28;20179;-75
2023/04/16 10:44:10;;;;;;;2.67;1.90;;;;;;;18.86;42.38;94208.69;4995631;28;20185;-75
2023/04/16 10:46:36;;;;;;;6.78;2.40;;;;;;;19.05;42.14;94228.28;5008060;28;20181;-78
2023/04/16 10:49:11;;;;;;;5.70;2.20;;;;;;;19.13;42.32;94230.38;5001541;28;21015;-78
2023/04/16 10:51:36;;;;;;;4.97;2.47;;;;;;;19.18;41.93;94227.66;4999637;28;20649;-76
2023/04/16 10:54:08;;;;;;;4.53;2.58;;;;;;;19.17;42.44;94223.41;5009182;28;20184;-76
2023/04/16 10:56:35;;;;;;;7.15;2.55;;;;;;;19.20;43.23;94225.50;5007657;28;20227;-78
2023/04/16 10:59:05;;;;;;;6.13;2.13;;;;;;;19.19;41.81;94210.59;5003805;28;20219;-78
2023/04/16 11:01:31;;;;;;;4.65;2.63;;;;;;;19.35;40.31;94215.78;5008188;28;20252;-77
2023/04/16 11:04:20;;;;;;;5.43;3.00;;;;;;;19.32;41.43;94216.34;5009255;28;20263;-76
2023/04/16 11:07:02;;;;;;;4.50;2.42;;;;;;;19.40;41.81;94205.84;4999828;28;20180;-75
2023/04/16 11:10:01;;;;;;;9.57;2.28;;;;;;;19.60;43.83;94196.88;5007128;28;20228;-76
2023/04/16 11:12:55;;;;;;;5.90;2.50;;;;;;;19.83;40.97;94203.31;5006863;28;20259;-76
2023/04/16 11:15:22;;;;;;;4.28;2.05;;;;;;;20.01;41.15;94199.91;4994960;28;20189;-76
2023/04/16 11:17:50;;;;;;;6.43;2.65;;;;;;;20.21;42.57;94191.63;5006391;28;20185;-77
2023/04/16 11:20:19;;;;;;;8.65;3.95;;;;;;;20.28;41.79;94185.94;5009485;28;20264;-76
2023/04/16 11:22:45;;;;;;;6.47;2.92;;;;;;;20.16;38.94;94189.00;4991726;28;20554;-76
2023/04/16 11:25:11;;;;;;;4.85;2.22;;;;;;;19.92;38.49;94189.03;5000402;28;20199;-76